sensor_id;sensor_type;location;lat;lon;timestamp;temperature;humidity
63051;SHT30;49136;47.416;19.402;2023-04-25T04:29:12;10.99;88.18
63051;SHT30;49136;47.416;19.402;2023-04-25T04:31:48;10.98;87.83
63051;SHT30;49136;47.416;19.402;2023-04-25T04:34:14;11.02;87.32
63051;SHT30;49136;47.416;19.402;2023-04-25T04:36:41;10.98;88.51
63051;SHT30;49136;47.416;19.402;2023-04-25T04:39:07;11.02;88.93
63051;SHT30;49136;47.416;19.402;2023-04-25T04:41:34;11.09;88.48
63051;SHT30;49136;47.416;19.402;2023-04-25T04:43:59;11.01;89.05
63051;SHT30;49136;47.416;19.402;2023-04-25T04:46:26;11.02;88.31
63051;SHT30;49136;47.416;19.402;2023-04-25T04:48:53;11.07;87.94
63051;SHT30;49136;47.416;19.402;2023-04-25T04:51:18;11.08;88.68
63051;SHT30;49136;47.416;19.402;2023-04-25T04:53:44;11.05;87.58
63051;SHT30;49136;47.416;19.402;2023-04-25T04:56:09;11.07;88.16
63051;SHT30;49136;47.416;19.402;2023-04-25T04:58:36;11.15;88.20
63051;SHT30;49136;47.416;19.402;2023-04-25T05:01:02;11.04;88.30
63051;SHT30;49136;47.416;19.402;2023-04-25T05:03:27;11.01;88.97
63051;SHT30;49136;47.416;19.402;2023-04-25T05:05:53;11.01;88.18
63051;SHT30;49136;47.416;19.402;2023-04-25T05:08:18;11.04;87.97
63051;SHT30;49136;47.416;19.402;2023-04-25T05:10:44;10.99;88.65
63051;SHT30;49136;47.416;19.402;2023-04-25T05:13:09;10.99;88.49
63051;SHT30;49136;47.416;19.402;2023-04-25T05:15:35;11.02;88.31
63051;SHT30;49136;47.416;19.402;2023-04-25T05:18:00;11.07;88.58
63051;SHT30;49136;47.416;19.402;2023-04-25T05:20:26;11.16;88.44
63051;SHT30;49136;47.416;19.402;2023-04-25T05:22:52;11.11;88.56
63051;SHT30;49136;47.416;19.402;2023-04-25T05:25:17;11.09;89.40
63051;SHT30;49136;47.416;19.402;2023-04-25T05:27:43;11.16;89.93
63051;SHT30;49136;47.416;19.402;2023-04-25T05:30:08;11.19;90.20
63051;SHT30;49136;47.416;19.402;2023-04-25T05:32:34;11.07;89.82
63051;SHT30;49136;47.416;19.402;2023-04-25T05:35:00;11.12;89.92
63051;SHT30;49136;47.416;19.402;2023-04-25T05:37:26;11.09;90.36
63051;SHT30;49136;47.416;19.402;2023-04-25T05:39:51;11.09;90.42
63051;SHT30;49136;47.416;19.402;2023-04-25T05:42:17;11.11;90.90
63051;SHT30;49136;47.416;19.402;2023-04-25T05:44:42;11.09;91.52
63051;SHT30;49136;47.416;19.402;2023-04-25T05:47:07;11.08;91.23
63051;SHT30;49136;47.416;19.402;2023-04-25T05:49:34;10.92;91.31
63051;SHT30;49136;47.416;19.402;2023-04-25T05:51:59;10.97;90.95
63051;SHT30;49136;47.416;19.402;2023-04-25T05:54:25;10.88;91.40
63051;SHT30;49136;47.416;19.402;2023-04-25T05:56:50;10.84;92.24
63051;SHT30;49136;47.416;19.402;2023-04-25T05:59:15;10.85;90.96
63051;SHT30;49136;47.416;19.402;2023-04-25T06:01:41;10.91;92.15
63051;SHT30;49136;47.416;19.402;2023-04-25T06:04:07;10.71;92.63
63051;SHT30;49136;47.416;19.402;2023-04-25T06:06:32;10.75;92.47
63051;SHT30;49136;47.416;19.402;2023-04-25T06:08:58;10.67;92.45
63051;SHT30;49136;47.416;19.402;2023-04-25T06:11:23;10.64;93.33
63051;SHT30;49136;47.416;19.402;2023-04-25T06:13:48;10.64;93.48
63051;SHT30;49136;47.416;19.402;2023-04-25T06:16:14;10.64;94.33
63051;SHT30;49136;47.416;19.402;2023-04-25T06:18:39;10.68;93.50
63051;SHT30;49136;47.416;19.402;2023-04-25T06:21:05;10.59;94.18
63051;SHT30;49136;47.416;19.402;2023-04-25T06:23:30;10.48;94.57
63051;SHT30;49136;47.416;19.402;2023-04-25T06:25:56;10.49;94.87
63051;SHT30;49136;47.416;19.402;2023-04-25T06:28:21;10.39;94.18
63051;SHT30;49136;47.416;19.402;2023-04-25T06:30:48;10.31;95.32
63051;SHT30;49136;47.416;19.402;2023-04-25T06:33:13;10.35;94.71
63051;SHT30;49136;47.416;19.402;2023-04-25T06:35:38;10.21;95.53
63051;SHT30;49136;47.416;19.402;2023-04-25T06:38:04;10.18;96.34
63051;SHT30;49136;47.416;19.402;2023-04-25T06:40:29;10.18;96.53
63051;SHT30;49136;47.416;19.402;2023-04-25T06:42:55;10.11;96.77
63051;SHT30;49136;47.416;19.402;2023-04-25T06:45:20;10.15;96.59
63051;SHT30;49136;47.416;19.402;2023-04-25T06:47:46;10.04;96.84
63051;SHT30;49136;47.416;19.402;2023-04-25T06:50:11;10.01;96.66
63051;SHT30;49136;47.416;19.402;2023-04-25T06:52:37;10.05;97.47
63051;SHT30;49136;47.416;19.402;2023-04-25T06:55:02;9.74;97.81
63051;SHT30;49136;47.416;19.402;2023-04-25T06:57:28;9.84;97.37
63051;SHT30;49136;47.416;19.402;2023-04-25T06:59:53;9.95;96.97
63051;SHT30;49136;47.416;19.402;2023-04-25T07:02:18;10.07;97.27
63051;SHT30;49136;47.416;19.402;2023-04-25T07:04:46;10.11;96.22
63051;SHT30;49136;47.416;19.402;2023-04-25T07:07:11;10.28;96.50
63051;SHT30;49136;47.416;19.402;2023-04-25T07:09:37;10.46;96.11
63051;SHT30;49136;47.416;19.402;2023-04-25T07:12:02;10.63;96.39
63051;SHT30;49136;47.416;19.402;2023-04-25T07:14:28;10.77;95.97
63051;SHT30;49136;47.416;19.402;2023-04-25T07:16:54;10.95;94.92
63051;SHT30;49136;47.416;19.402;2023-04-25T07:19:21;11.23;94.30
63051;SHT30;49136;47.416;19.402;2023-04-25T07:21:49;11.34;92.94
63051;SHT30;49136;47.416;19.402;2023-04-25T07:24:14;11.70;93.92
63051;SHT30;49136;47.416;19.402;2023-04-25T07:26:39;11.79;92.86
63051;SHT30;49136;47.416;19.402;2023-04-25T07:29:05;12.01;92.06
63051;SHT30;49136;47.416;19.402;2023-04-25T07:31:30;12.38;92.95
63051;SHT30;49136;47.416;19.402;2023-04-25T07:33:56;12.51;91.36
63051;SHT30;49136;47.416;19.402;2023-04-25T07:36:21;12.64;90.62
63051;SHT30;49136;47.416;19.402;2023-04-25T07:38:46;13.00;90.75
63051;SHT30;49136;47.416;19.402;2023-04-25T07:41:12;13.30;90.13
63051;SHT30;49136;47.416;19.402;2023-04-25T07:43:37;13.36;87.80
63051;SHT30;49136;47.416;19.402;2023-04-25T07:46:04;13.51;86.39
63051;SHT30;49136;47.416;19.402;2023-04-25T07:48:30;13.54;87.29
63051;SHT30;49136;47.416;19.402;2023-04-25T07:50:55;13.91;87.18
63051;SHT30;49136;47.416;19.402;2023-04-25T07:53:21;14.17;85.08
63051;SHT30;49136;47.416;19.402;2023-04-25T07:55:46;14.18;85.46
63051;SHT30;49136;47.416;19.402;2023-04-25T07:58:12;14.54;85.54
63051;SHT30;49136;47.416;19.402;2023-04-25T08:00:37;14.39;83.23
63051;SHT30;49136;47.416;19.402;2023-04-25T08:03:03;14.32;84.12
63051;SHT30;49136;47.416;19.402;2023-04-25T08:05:29;14.42;84.43
63051;SHT30;49136;47.416;19.402;2023-04-25T08:07:54;14.86;84.41
63051;SHT30;49136;47.416;19.402;2023-04-25T08:10:22;14.93;83.60
63051;SHT30;49136;47.416;19.402;2023-04-25T08:12:48;14.87;82.75
63051;SHT30;49136;47.416;19.402;2023-04-25T08:15:13;14.93;81.97
63051;SHT30;49136;47.416;19.402;2023-04-25T08:17:39;14.73;82.94
63051;SHT30;49136;47.416;19.402;2023-04-25T08:20:05;14.34;82.22
63051;SHT30;49136;47.416;19.402;2023-04-25T08:22:31;14.03;82.88
63051;SHT30;49136;47.416;19.402;2023-04-25T08:24:57;14.00;85.20
63051;SHT30;49136;47.416;19.402;2023-04-25T08:27:22;13.90;83.92
63051;SHT30;49136;47.416;19.402;2023-04-25T08:29:49;13.87;82.24
63051;SHT30;49136;47.416;19.402;2023-04-25T08:32:14;14.45;83.46
63051;SHT30;49136;47.416;19.402;2023-04-25T08:34:39;15.00;80.18
63051;SHT30;49136;47.416;19.402;2023-04-25T08:37:08;14.80;80.81
63051;SHT30;49136;47.416;19.402;2023-04-25T08:39:35;14.99;79.03
63051;SHT30;49136;47.416;19.402;2023-04-25T08:42:02;15.34;79.59
63051;SHT30;49136;47.416;19.402;2023-04-25T08:44:33;16.22;77.33
63051;SHT30;49136;47.416;19.402;2023-04-25T08:47:04;16.55;76.68
63051;SHT30;49136;47.416;19.402;2023-04-25T08:49:33;15.86;76.37
63051;SHT30;49136;47.416;19.402;2023-04-25T08:52:04;16.67;77.65
63051;SHT30;49136;47.416;19.402;2023-04-25T08:54:32;16.95;72.80
63051;SHT30;49136;47.416;19.402;2023-04-25T08:57:01;16.01;74.08
63051;SHT30;49136;47.416;19.402;2023-04-25T08:59:30;16.46;75.44
63051;SHT30;49136;47.416;19.402;2023-04-25T09:01:57;16.32;73.94
63051;SHT30;49136;47.416;19.402;2023-04-25T09:04:22;15.96;73.00
63051;SHT30;49136;47.416;19.402;2023-04-25T09:06:47;16.59;74.11
63051;SHT30;49136;47.416;19.402;2023-04-25T09:09:13;16.84;72.78
63051;SHT30;49136;47.416;19.402;2023-04-25T09:11:39;15.84;72.40
63051;SHT30;49136;47.416;19.402;2023-04-25T09:14:13;15.48;75.15
63051;SHT30;49136;47.416;19.402;2023-04-25T09:19:32;16.26;73.24
63051;SHT30;49136;47.416;19.402;2023-04-25T09:22:01;15.71;74.67
63051;SHT30;49136;47.416;19.402;2023-04-25T09:27:13;15.66;72.74
63051;SHT30;49136;47.416;19.402;2023-04-25T09:29:43;16.21;74.00
63051;SHT30;49136;47.416;19.402;2023-04-25T09:32:23;16.14;71.39
63051;SHT30;49136;47.416;19.402;2023-04-25T09:34:53;16.01;73.15
63051;SHT30;49136;47.416;19.402;2023-04-25T09:37:27;15.89;73.33
63051;SHT30;49136;47.416;19.402;2023-04-25T09:39:55;15.96;71.48
63051;SHT30;49136;47.416;19.402;2023-04-25T09:42:25;15.59;72.04
63051;SHT30;49136;47.416;19.402;2023-04-25T09:44:55;15.31;72.02
63051;SHT30;49136;47.416;19.402;2023-04-25T09:47:22;15.50;72.49
63051;SHT30;49136;47.416;19.402;2023-04-25T09:49:49;15.60;74.21
63051;SHT30;49136;47.416;19.402;2023-04-25T09:52:19;15.07;74.09
63051;SHT30;49136;47.416;19.402;2023-04-25T09:54:46;14.86;74.00
63051;SHT30;49136;47.416;19.402;2023-04-25T09:57:15;15.04;73.33
63051;SHT30;49136;47.416;19.402;2023-04-25T09:59:46;15.04;72.73
63051;SHT30;49136;47.416;19.402;2023-04-25T10:02:12;15.45;72.63
63051;SHT30;49136;47.416;19.402;2023-04-25T10:04:38;15.17;73.01
63051;SHT30;49136;47.416;19.402;2023-04-25T10:07:08;14.89;72.01
63051;SHT30;49136;47.416;19.402;2023-04-25T10:09:37;14.99;71.83
63051;SHT30;49136;47.416;19.402;2023-04-25T10:12:03;15.24;71.10
63051;SHT30;49136;47.416;19.402;2023-04-25T10:14:31;16.17;70.24
63051;SHT30;49136;47.416;19.402;2023-04-25T10:16:58;15.50;70.67
63051;SHT30;49136;47.416;19.402;2023-04-25T10:19:25;16.12;70.45
63051;SHT30;49136;47.416;19.402;2023-04-25T10:21:55;15.65;68.82
63051;SHT30;49136;47.416;19.402;2023-04-25T10:24:22;15.17;69.69
63051;SHT30;49136;47.416;19.402;2023-04-25T11:19:37;15.30;68.38
63051;SHT30;49136;47.416;19.402;2023-04-25T11:22:03;15.62;67.03
63051;SHT30;49136;47.416;19.402;2023-04-25T11:24:30;15.94;66.86
63051;SHT30;49136;47.416;19.402;2023-04-25T11:26:57;16.02;67.23
63051;SHT30;49136;47.416;19.402;2023-04-25T11:29:26;16.08;67.00
63051;SHT30;49136;47.416;19.402;2023-04-25T11:31:52;15.74;66.69
63051;SHT30;49136;47.416;19.402;2023-04-25T11:34:18;16.21;65.79
63051;SHT30;49136;47.416;19.402;2023-04-25T11:36:45;16.67;65.11
63051;SHT30;49136;47.416;19.402;2023-04-25T11:39:11;16.45;64.31
63051;SHT30;49136;47.416;19.402;2023-04-25T11:41:41;16.15;64.03
63051;SHT30;49136;47.416;19.402;2023-04-25T11:44:06;16.15;63.92
63051;SHT30;49136;47.416;19.402;2023-04-25T11:46:35;16.12;65.17
63051;SHT30;49136;47.416;19.402;2023-04-25T11:49:02;16.35;66.69
63051;SHT30;49136;47.416;19.402;2023-04-25T11:51:28;15.98;64.35
63051;SHT30;49136;47.416;19.402;2023-04-25T11:53:53;15.83;63.85
63051;SHT30;49136;47.416;19.402;2023-04-25T11:56:20;15.77;64.04
63051;SHT30;49136;47.416;19.402;2023-04-25T11:59:03;16.29;65.50
63051;SHT30;49136;47.416;19.402;2023-04-25T12:01:36;15.84;64.21
63051;SHT30;49136;47.416;19.402;2023-04-25T12:04:17;15.76;64.02
63051;SHT30;49136;47.416;19.402;2023-04-25T12:06:46;16.42;64.78
63051;SHT30;49136;47.416;19.402;2023-04-25T12:09:14;16.38;63.80
63051;SHT30;49136;47.416;19.402;2023-04-25T12:11:48;16.77;64.64
63051;SHT30;49136;47.416;19.402;2023-04-25T12:14:25;16.36;64.50
63051;SHT30;49136;47.416;19.402;2023-04-25T12:16:54;16.46;63.60
63051;SHT30;49136;47.416;19.402;2023-04-25T12:19:20;16.01;64.47
63051;SHT30;49136;47.416;19.402;2023-04-25T12:21:47;16.12;64.60
63051;SHT30;49136;47.416;19.402;2023-04-25T12:24:15;16.10;64.92
63051;SHT30;49136;47.416;19.402;2023-04-25T12:26:48;15.77;64.85
63051;SHT30;49136;47.416;19.402;2023-04-25T12:29:18;15.43;65.80
63051;SHT30;49136;47.416;19.402;2023-04-25T12:31:43;15.60;65.56
63051;SHT30;49136;47.416;19.402;2023-04-25T12:34:10;15.63;65.97
63051;SHT30;49136;47.416;19.402;2023-04-25T12:36:35;15.79;65.64
63051;SHT30;49136;47.416;19.402;2023-04-25T12:39:01;15.77;64.68
63051;SHT30;49136;47.416;19.402;2023-04-25T12:41:29;15.86;63.99
63051;SHT30;49136;47.416;19.402;2023-04-25T12:43:55;16.46;65.10
63051;SHT30;49136;47.416;19.402;2023-04-25T12:46:21;16.73;63.11
63051;SHT30;49136;47.416;19.402;2023-04-25T12:48:48;16.66;63.37
63051;SHT30;49136;47.416;19.402;2023-04-25T12:51:13;17.07;61.33
63051;SHT30;49136;47.416;19.402;2023-04-25T12:53:39;16.71;60.50
63051;SHT30;49136;47.416;19.402;2023-04-25T12:56:08;16.26;62.29
63051;SHT30;49136;47.416;19.402;2023-04-25T12:58:34;16.89;60.51
63051;SHT30;49136;47.416;19.402;2023-04-25T13:00:59;17.32;60.98
63051;SHT30;49136;47.416;19.402;2023-04-25T13:03:25;17.88;60.22
63051;SHT30;49136;47.416;19.402;2023-04-25T13:05:51;18.71;61.75
63051;SHT30;49136;47.416;19.402;2023-04-25T13:08:18;18.64;56.98
63051;SHT30;49136;47.416;19.402;2023-04-25T13:10:43;19.05;58.54
63051;SHT30;49136;47.416;19.402;2023-04-25T13:13:09;18.72;57.10
63051;SHT30;49136;47.416;19.402;2023-04-25T13:15:35;18.48;57.56
63051;SHT30;49136;47.416;19.402;2023-04-25T13:18:00;17.79;56.97
63051;SHT30;49136;47.416;19.402;2023-04-25T13:20:26;18.75;57.28
63051;SHT30;49136;47.416;19.402;2023-04-25T13:22:51;19.33;57.69
63051;SHT30;49136;47.416;19.402;2023-04-25T13:25:17;18.69;55.16
63051;SHT30;49136;47.416;19.402;2023-04-25T13:27:43;18.28;54.93
63051;SHT30;49136;47.416;19.402;2023-04-25T13:30:09;17.82;56.92
63051;SHT30;49136;47.416;19.402;2023-04-25T13:32:36;17.35;58.07
63051;SHT30;49136;47.416;19.402;2023-04-25T13:35:06;16.74;59.41
63051;SHT30;49136;47.416;19.402;2023-04-25T13:37:32;17.61;58.58
63051;SHT30;49136;47.416;19.402;2023-04-25T13:40:09;18.23;56.73
63051;SHT30;49136;47.416;19.402;2023-04-25T13:42:35;18.99;57.58
63051;SHT30;49136;47.416;19.402;2023-04-25T13:45:02;19.41;57.35
63051;SHT30;49136;47.416;19.402;2023-04-25T13:47:29;19.59;55.57
63051;SHT30;49136;47.416;19.402;2023-04-25T13:49:55;19.46;53.48
63051;SHT30;49136;47.416;19.402;2023-04-25T13:52:21;19.15;54.13
63051;SHT30;49136;47.416;19.402;2023-04-25T13:54:46;18.37;54.79
63051;SHT30;49136;47.416;19.402;2023-04-25T13:57:12;18.30;55.87
63051;SHT30;49136;47.416;19.402;2023-04-25T13:59:38;18.06;55.40
63051;SHT30;49136;47.416;19.402;2023-04-25T14:02:04;17.07;55.76
63051;SHT30;49136;47.416;19.402;2023-04-25T14:04:29;17.20;56.39
63051;SHT30;49136;47.416;19.402;2023-04-25T14:06:55;16.71;57.50
63051;SHT30;49136;47.416;19.402;2023-04-25T14:09:20;16.33;57.78
63051;SHT30;49136;47.416;19.402;2023-04-25T14:11:53;16.41;56.93
63051;SHT30;49136;47.416;19.402;2023-04-25T14:14:20;16.71;55.91
63051;SHT30;49136;47.416;19.402;2023-04-25T14:16:49;16.33;55.68
63051;SHT30;49136;47.416;19.402;2023-04-25T14:19:19;16.38;55.89
63051;SHT30;49136;47.416;19.402;2023-04-25T14:21:44;16.66;54.64
63051;SHT30;49136;47.416;19.402;2023-04-25T14:24:11;17.36;57.32
63051;SHT30;49136;47.416;19.402;2023-04-25T14:26:37;17.04;55.90
63051;SHT30;49136;47.416;19.402;2023-04-25T14:29:04;17.57;57.30
63051;SHT30;49136;47.416;19.402;2023-04-25T14:31:31;17.78;56.09
63051;SHT30;49136;47.416;19.402;2023-04-25T14:33:56;17.70;54.63
63051;SHT30;49136;47.416;19.402;2023-04-25T14:36:22;17.05;52.25
63051;SHT30;49136;47.416;19.402;2023-04-25T14:38:47;16.73;53.12
63051;SHT30;49136;47.416;19.402;2023-04-25T14:41:12;16.49;54.51
63051;SHT30;49136;47.416;19.402;2023-04-25T14:43:38;16.30;54.48
63051;SHT30;49136;47.416;19.402;2023-04-25T14:46:05;16.46;54.94
63051;SHT30;49136;47.416;19.402;2023-04-25T14:48:31;16.70;53.70
63051;SHT30;49136;47.416;19.402;2023-04-25T14:50:57;16.52;53.52
63051;SHT30;49136;47.416;19.402;2023-04-25T14:53:23;16.92;54.66
63051;SHT30;49136;47.416;19.402;2023-04-25T14:55:48;16.98;54.35
63051;SHT30;49136;47.416;19.402;2023-04-25T14:58:14;16.81;53.39
63051;SHT30;49136;47.416;19.402;2023-04-25T15:00:40;16.81;54.86
63051;SHT30;49136;47.416;19.402;2023-04-25T15:03:05;16.81;54.84
63051;SHT30;49136;47.416;19.402;2023-04-25T15:05:33;16.64;54.71
63051;SHT30;49136;47.416;19.402;2023-04-25T15:07:58;16.96;56.28
63051;SHT30;49136;47.416;19.402;2023-04-25T15:10:23;16.87;54.75
63051;SHT30;49136;47.416;19.402;2023-04-25T15:12:49;16.76;55.44
63051;SHT30;49136;47.416;19.402;2023-04-25T15:15:15;15.82;56.70
63051;SHT30;49136;47.416;19.402;2023-04-25T15:17:41;15.93;55.80
63051;SHT30;49136;47.416;19.402;2023-04-25T15:20:08;16.24;56.19
63051;SHT30;49136;47.416;19.402;2023-04-25T15:22:39;16.56;58.55
63051;SHT30;49136;47.416;19.402;2023-04-25T15:25:05;16.60;58.21
63051;SHT30;49136;47.416;19.402;2023-04-25T15:27:33;16.70;57.28
63051;SHT30;49136;47.416;19.402;2023-04-25T15:29:58;16.30;56.98
63051;SHT30;49136;47.416;19.402;2023-04-25T15:32:24;16.36;58.24
63051;SHT30;49136;47.416;19.402;2023-04-25T15:34:49;16.41;57.57
63051;SHT30;49136;47.416;19.402;2023-04-25T15:37:15;16.04;58.14
63051;SHT30;49136;47.416;19.402;2023-04-25T15:39:40;16.11;57.62
63051;SHT30;49136;47.416;19.402;2023-04-25T15:42:06;16.12;56.47
63051;SHT30;49136;47.416;19.402;2023-04-25T15:44:32;16.00;58.09
63051;SHT30;49136;47.416;19.402;2023-04-25T15:46:57;16.00;56.33
63051;SHT30;49136;47.416;19.402;2023-04-25T15:49:23;15.93;55.62
63051;SHT30;49136;47.416;19.402;2023-04-25T15:51:49;15.90;56.04
63051;SHT30;49136;47.416;19.402;2023-04-25T15:54:14;15.55;55.51
63051;SHT30;49136;47.416;19.402;2023-04-25T15:56:40;15.63;55.68
63051;SHT30;49136;47.416;19.402;2023-04-25T15:59:05;15.53;55.25
63051;SHT30;49136;47.416;19.402;2023-04-25T16:01:31;15.52;55.72
63051;SHT30;49136;47.416;19.402;2023-04-25T16:03:57;15.48;55.72
63051;SHT30;49136;47.416;19.402;2023-04-25T16:06:24;15.48;56.08
63051;SHT30;49136;47.416;19.402;2023-04-25T16:08:50;15.45;56.42
63051;SHT30;49136;47.416;19.402;2023-04-25T16:11:16;15.30;55.37
63051;SHT30;49136;47.416;19.402;2023-04-25T16:13:42;15.25;56.28
63051;SHT30;49136;47.416;19.402;2023-04-25T16:16:08;15.21;55.76
63051;SHT30;49136;47.416;19.402;2023-04-25T16:18:33;15.36;55.61
63051;SHT30;49136;47.416;19.402;2023-04-25T16:20:59;15.31;55.27
63051;SHT30;49136;47.416;19.402;2023-04-25T16:23:24;15.17;55.94
63051;SHT30;49136;47.416;19.402;2023-04-25T16:25:50;15.07;56.58
63051;SHT30;49136;47.416;19.402;2023-04-25T16:28:16;14.96;57.93
63051;SHT30;49136;47.416;19.402;2023-04-25T16:30:42;14.89;58.57
63051;SHT30;49136;47.416;19.402;2023-04-25T16:33:07;14.79;57.70
63051;SHT30;49136;47.416;19.402;2023-04-25T16:35:33;14.82;57.73
63051;SHT30;49136;47.416;19.402;2023-04-25T16:37:58;14.69;57.88
63051;SHT30;49136;47.416;19.402;2023-04-25T16:40:25;14.59;57.73
63051;SHT30;49136;47.416;19.402;2023-04-25T16:42:51;14.62;57.80
63051;SHT30;49136;47.416;19.402;2023-04-25T16:45:16;14.68;57.91
63051;SHT30;49136;47.416;19.402;2023-04-25T16:47:45;14.62;57.16
63051;SHT30;49136;47.416;19.402;2023-04-25T16:50:15;14.56;58.56
63051;SHT30;49136;47.416;19.402;2023-04-25T16:52:41;14.62;57.92
63051;SHT30;49136;47.416;19.402;2023-04-25T16:55:07;14.69;60.05
63051;SHT30;49136;47.416;19.402;2023-04-25T16:57:34;14.58;62.17
63051;SHT30;49136;47.416;19.402;2023-04-25T17:00:00;14.65;64.06
63051;SHT30;49136;47.416;19.402;2023-04-25T17:02:26;14.46;64.85
63051;SHT30;49136;47.416;19.402;2023-04-25T17:04:51;14.34;66.05
63051;SHT30;49136;47.416;19.402;2023-04-25T17:07:17;14.17;65.31
63051;SHT30;49136;47.416;19.402;2023-04-25T17:09:48;13.78;66.48
63051;SHT30;49136;47.416;19.402;2023-04-25T17:12:14;13.57;68.27
63051;SHT30;49136;47.416;19.402;2023-04-25T17:14:39;13.33;67.90
63051;SHT30;49136;47.416;19.402;2023-04-25T17:17:05;13.13;68.84
63051;SHT30;49136;47.416;19.402;2023-04-25T17:19:31;12.85;70.89
63051;SHT30;49136;47.416;19.402;2023-04-25T17:21:56;12.74;71.32
63051;SHT30;49136;47.416;19.402;2023-04-25T17:24:22;12.55;71.89
63051;SHT30;49136;47.416;19.402;2023-04-25T17:26:47;12.58;72.13
63051;SHT30;49136;47.416;19.402;2023-04-25T17:29:13;12.44;72.57
63051;SHT30;49136;47.416;19.402;2023-04-25T17:31:39;12.27;72.89
63051;SHT30;49136;47.416;19.402;2023-04-25T17:34:05;12.26;72.93
63051;SHT30;49136;47.416;19.402;2023-04-25T17:36:30;12.09;74.15
63051;SHT30;49136;47.416;19.402;2023-04-25T17:38:56;11.86;74.98
63051;SHT30;49136;47.416;19.402;2023-04-25T17:41:21;11.89;74.62
63051;SHT30;49136;47.416;19.402;2023-04-25T17:43:48;11.77;75.72
63051;SHT30;49136;47.416;19.402;2023-04-25T17:46:13;11.73;76.07
63051;SHT30;49136;47.416;19.402;2023-04-25T17:48:39;11.60;76.76
63051;SHT30;49136;47.416;19.402;2023-04-25T17:51:04;11.59;76.83
63051;SHT30;49136;47.416;19.402;2023-04-25T17:53:32;11.50;77.16
63051;SHT30;49136;47.416;19.402;2023-04-25T17:55:57;11.37;78.14
63051;SHT30;49136;47.416;19.402;2023-04-25T17:58:23;11.30;78.29
63051;SHT30;49136;47.416;19.402;2023-04-25T18:00:48;11.08;79.45
63051;SHT30;49136;47.416;19.402;2023-04-25T18:03:14;11.07;79.10
63051;SHT30;49136;47.416;19.402;2023-04-25T18:05:40;10.98;79.30
63051;SHT30;49136;47.416;19.402;2023-04-25T18:08:07;10.92;79.49
63051;SHT30;49136;47.416;19.402;2023-04-25T18:10:32;10.84;80.45
63051;SHT30;49136;47.416;19.402;2023-04-25T18:12:58;10.73;80.57
63051;SHT30;49136;47.416;19.402;2023-04-25T18:15:24;10.64;80.91
63051;SHT30;49136;47.416;19.402;2023-04-25T18:17:50;10.59;81.06
63051;SHT30;49136;47.416;19.402;2023-04-25T18:20:16;10.52;81.44
63051;SHT30;49136;47.416;19.402;2023-04-25T18:22:43;10.46;81.20
63051;SHT30;49136;47.416;19.402;2023-04-25T18:25:10;10.39;81.81
63051;SHT30;49136;47.416;19.402;2023-04-25T18:27:36;10.31;82.29
63051;SHT30;49136;47.416;19.402;2023-04-25T18:30:04;10.18;82.76
63051;SHT30;49136;47.416;19.402;2023-04-25T18:32:29;10.04;82.84
63051;SHT30;49136;47.416;19.402;2023-04-25T18:34:57;9.98;83.18
63051;SHT30;49136;47.416;19.402;2023-04-25T18:37:23;9.97;83.50
63051;SHT30;49136;47.416;19.402;2023-04-25T18:39:48;9.90;83.20
63051;SHT30;49136;47.416;19.402;2023-04-25T18:42:14;9.72;84.40
63051;SHT30;49136;47.416;19.402;2023-04-25T18:44:40;9.70;84.51
63051;SHT30;49136;47.416;19.402;2023-04-25T18:47:07;9.73;84.09
63051;SHT30;49136;47.416;19.402;2023-04-25T18:49:33;9.59;84.64
63051;SHT30;49136;47.416;19.402;2023-04-25T18:51:59;9.59;84.70
63051;SHT30;49136;47.416;19.402;2023-04-25T18:54:25;9.49;84.71
63051;SHT30;49136;47.416;19.402;2023-04-25T18:56:51;9.46;84.44
63051;SHT30;49136;47.416;19.402;2023-04-25T18:59:16;9.36;84.49
63051;SHT30;49136;47.416;19.402;2023-04-25T19:01:42;9.21;85.25
63051;SHT30;49136;47.416;19.402;2023-04-25T19:04:08;9.08;85.32
63051;SHT30;49136;47.416;19.402;2023-04-25T19:06:34;8.97;85.57
63051;SHT30;49136;47.416;19.402;2023-04-25T19:09:00;8.86;86.19
63051;SHT30;49136;47.416;19.402;2023-04-25T19:11:26;8.77;86.36
63051;SHT30;49136;47.416;19.402;2023-04-25T19:13:52;8.76;87.50
63051;SHT30;49136;47.416;19.402;2023-04-25T19:16:21;8.66;86.99
63051;SHT30;49136;47.416;19.402;2023-04-25T19:18:48;8.68;87.30
63051;SHT30;49136;47.416;19.402;2023-04-25T19:21:15;8.55;87.46
63051;SHT30;49136;47.416;19.402;2023-04-25T19:23:41;8.44;87.72
63051;SHT30;49136;47.416;19.402;2023-04-25T19:26:06;8.59;87.52
63051;SHT30;49136;47.416;19.402;2023-04-25T19:28:32;8.66;87.14
63051;SHT30;49136;47.416;19.402;2023-04-25T19:30:58;8.87;86.14
63051;SHT30;49136;47.416;19.402;2023-04-25T19:33:24;8.87;85.86
63051;SHT30;49136;47.416;19.402;2023-04-25T19:35:50;8.91;85.73
63051;SHT30;49136;47.416;19.402;2023-04-25T19:38:16;8.87;85.53
63051;SHT30;49136;47.416;19.402;2023-04-25T19:40:41;8.91;85.22
63051;SHT30;49136;47.416;19.402;2023-04-25T19:43:08;9.20;84.32
63051;SHT30;49136;47.416;19.402;2023-04-25T19:45:34;9.27;83.84
63051;SHT30;49136;47.416;19.402;2023-04-25T19:48:01;9.31;83.72
63051;SHT30;49136;47.416;19.402;2023-04-25T19:50:29;9.22;84.07
63051;SHT30;49136;47.416;19.402;2023-04-25T19:52:55;9.15;84.33
63051;SHT30;49136;47.416;19.402;2023-04-25T19:55:22;9.13;84.29
63051;SHT30;49136;47.416;19.402;2023-04-25T19:57:48;9.11;84.52
63051;SHT30;49136;47.416;19.402;2023-04-25T20:00:16;9.07;84.79
63051;SHT30;49136;47.416;19.402;2023-04-25T20:02:43;9.10;85.05
63051;SHT30;49136;47.416;19.402;2023-04-25T20:05:13;9.14;84.85
63051;SHT30;49136;47.416;19.402;2023-04-25T20:07:41;8.96;85.28
63051;SHT30;49136;47.416;19.402;2023-04-25T20:10:08;8.84;85.92
63051;SHT30;49136;47.416;19.402;2023-04-25T20:12:35;8.83;85.95
63051;SHT30;49136;47.416;19.402;2023-04-25T20:15:10;8.79;86.10
63051;SHT30;49136;47.416;19.402;2023-04-25T20:17:37;8.68;86.54
63051;SHT30;49136;47.416;19.402;2023-04-25T20:20:04;8.61;86.92
63051;SHT30;49136;47.416;19.402;2023-04-25T20:22:31;8.62;86.92
63051;SHT30;49136;47.416;19.402;2023-04-25T20:25:02;8.54;87.13
63051;SHT30;49136;47.416;19.402;2023-04-25T20:27:31;8.45;87.66
63051;SHT30;49136;47.416;19.402;2023-04-25T20:29:58;8.35;88.08
63051;SHT30;49136;47.416;19.402;2023-04-25T20:32:28;8.37;88.30
63051;SHT30;49136;47.416;19.402;2023-04-25T20:34:56;8.48;87.92
63051;SHT30;49136;47.416;19.402;2023-04-25T20:37:21;8.41;88.16
63051;SHT30;49136;47.416;19.402;2023-04-25T20:39:47;8.41;87.85